Time;durP1;ratioP1;P1;durP2;ratioP2;P2;SDS_P1;SDS_P2;PMS_P1;PMS_P2;Temp;Humidity;BMP_temperature;BMP_pressure;BME280_temperature;BME280_humidity;BME280_pressure;Samples;Min_cycle;Max_cycle;Signal;HPM_P1;HPM_P2
2021/07/07 00:00:40;;;;;;;2.60;1.60;;;;;;;;;;2055002;28;20261;-62
2021/07/07 00:01:40;;;;;;;2.95;1.80;;;;;;;;;;2055826;28;20882;-60
2021/07/07 00:02:41;;;;;;;4.22;2.55;;;;;;;;;;2052111;28;20559;-59
2021/07/07 00:03:41;;;;;;;3.70;2.00;;;;;;;;;;2056330;28;20202;-61
2021/07/07 00:04:41;;;;;;;2.95;2.45;;;;;;;;;;2053103;28;20217;-61
2021/07/07 00:05:42;;;;;;;4.80;2.40;;;;;;;;;;2055486;28;20185;-60
2021/07/07 00:06:42;;;;;;;3.28;1.90;;;;;;;;;;2051437;28;20186;-59
2021/07/07 00:07:43;;;;;;;2.85;2.00;;;;;;;;;;2055330;28;20856;-60
2021/07/07 00:08:43;;;;;;;2.47;2.20;;;;;;;;;;2055633;28;20253;-62
2021/07/07 00:09:43;;;;;;;10.50;2.33;;;;;;;;;;2054924;28;20221;-60
2021/07/07 00:10:43;;;;;;;3.80;2.53;;;;;;;;;;2049555;28;20187;-60
2021/07/07 00:11:44;;;;;;;4.43;2.28;;;;;;;;;;2055859;28;20578;-62
2021/07/07 00:12:45;;;;;;;2.85;1.73;;;;;;;;;;2055826;28;20181;-62
2021/07/07 00:13:46;;;;;;;2.25;2.08;;;;;;;;;;2042715;28;20263;-63
2021/07/07 00:14:46;;;;;;;2.78;2.13;;;;;;;;;;2055682;28;20225;-63
2021/07/07 00:15:46;;;;;;;5.13;2.45;;;;;;;;;;2047509;28;20225;-61
2021/07/07 00:16:47;;;;;;;2.30;2.08;;;;;;;;;;2048391;29;20183;-61
2021/07/07 00:17:48;;;;;;;2.10;2.00;;;;;;;;;;2056439;28;20205;-59
2021/07/07 00:18:48;;;;;;;5.35;2.10;;;;;;;;;;2063792;28;20581;-60
2021/07/07 00:19:48;;;;;;;2.30;2.10;;;;;;;;;;2055024;28;20269;-61
2021/07/07 00:20:55;;;;;;;2.03;1.83;;;;;;;;;;2055694;28;20281;-62
2021/07/07 00:21:58;;;;;;;5.07;2.10;;;;;;;;;;2050058;28;20224;-62
2021/07/07 00:22:59;;;;;;;2.63;2.00;;;;;;;;;;2055068;28;20189;-63
2021/07/07 00:23:59;;;;;;;2.47;2.25;;;;;;;;;;2050334;28;20171;-62
2021/07/07 00:24:59;;;;;;;4.15;2.28;;;;;;;;;;2055080;28;20202;-62
2021/07/07 00:26:00;;;;;;;2.53;2.25;;;;;;;;;;2056304;28;20194;-61
2021/07/07 00:27:00;;;;;;;4.43;2.00;;;;;;;;;;2055422;28;20221;-62
2021/07/07 00:28:00;;;;;;;4.35;1.90;;;;;;;;;;2047690;28;20202;-62
2021/07/07 00:29:00;;;;;;;3.22;2.20;;;;;;;;;;2056338;28;20178;-62
2021/07/07 00:30:01;;;;;;;4.05;2.47;;;;;;;;;;2050999;28;20250;-62
2021/07/07 00:31:01;;;;;;;2.45;1.70;;;;;;;;;;2056463;28;20166;-59
2021/07/07 00:32:02;;;;;;;3.05;2.53;;;;;;;;;;2056129;28;20171;-62
2021/07/07 00:33:02;;;;;;;2.60;2.40;;;;;;;;;;2056549;28;20162;-63
2021/07/07 00:34:02;;;;;;;5.32;2.13;;;;;;;;;;2055593;28;20216;-64
2021/07/07 00:35:03;;;;;;;1.95;1.85;;;;;;;;;;2056407;28;20293;-62
2021/07/07 00:36:04;;;;;;;3.53;2.28;;;;;;;;;;2055774;28;20735;-62
2021/07/07 00:37:04;;;;;;;5.43;2.33;;;;;;;;;;2055347;28;20237;-60
2021/07/07 00:38:05;;;;;;;2.60;2.17;;;;;;;;;;2056046;28;20192;-62
2021/07/07 00:39:05;;;;;;;3.05;2.10;;;;;;;;;;2054111;28;20263;-61
2021/07/07 00:40:06;;;;;;;2.10;1.90;;;;;;;;;;2042416;29;20179;-59
2021/07/07 00:41:06;;;;;;;2.05;1.90;;;;;;;;;;2044045;28;20170;-60
2021/07/07 00:42:07;;;;;;;3.20;2.33;;;;;;;;;;2055747;28;20202;-59
2021/07/07 00:43:08;;;;;;;3.45;2.22;;;;;;;;;;2055472;28;20217;-59
2021/07/07 00:44:09;;;;;;;4.63;2.28;;;;;;;;;;2055921;28;20205;-58
2021/07/07 00:45:09;;;;;;;2.47;2.22;;;;;;;;;;2055945;28;20284;-60
2021/07/07 00:46:09;;;;;;;3.05;2.33;;;;;;;;;;2052453;28;20175;-59
2021/07/07 00:47:10;;;;;;;4.22;2.22;;;;;;;;;;2052440;28;20605;-58
2021/07/07 00:48:10;;;;;;;4.85;2.53;;;;;;;;;;2056327;28;20674;-61
2021/07/07 00:49:13;;;;;;;3.15;1.88;;;;;;;;;;2055426;28;20690;-60
2021/07/07 00:50:14;;;;;;;2.90;2.13;;;;;;;;;;2056134;28;20398;-60
2021/07/07 00:51:15;;;;;;;3.75;2.20;;;;;;;;;;2054029;28;20186;-59
2021/07/07 00:52:17;;;;;;;3.50;2.30;;;;;;;;;;2052508;28;20221;-60
2021/07/07 00:53:18;;;;;;;3.83;2.53;;;;;;;;;;2054324;28;20182;-61
2021/07/07 00:54:19;;;;;;;4.30;2.10;;;;;;;;;;2052947;28;20239;-62
2021/07/07 00:55:19;;;;;;;4.43;2.50;;;;;;;;;;2056329;28;20177;-61
2021/07/07 00:56:20;;;;;;;3.92;2.72;;;;;;;;;;2055996;28;20179;-60
2021/07/07 00:57:24;;;;;;;3.20;2.40;;;;;;;;;;2055640;28;20206;-62
2021/07/07 00:58:26;;;;;;;4.00;2.13;;;;;;;;;;2056821;28;20187;-61
2021/07/07 00:59:27;;;;;;;2.78;2.10;;;;;;;;;;2052122;28;20214;-61
2021/07/07 01:00:27;;;;;;;4.28;2.40;;;;;;;;;;2047704;29;20610;-61
2021/07/07 01:01:28;;;;;;;2.80;2.35;;;;;;;;;;2047059;29;20190;-61
2021/07/07 01:02:29;;;;;;;4.82;2.78;;;;;;;;;;2054279;28;20205;-62
2021/07/07 01:03:29;;;;;;;2.60;2.13;;;;;;;;;;2055890;28;20182;-61
2021/07/07 01:04:29;;;;;;;4.03;2.33;;;;;;;;;;2056754;28;20269;-61
2021/07/07 01:05:30;;;;;;;3.38;2.22;;;;;;;;;;2050304;28;20187;-59
2021/07/07 01:06:30;;;;;;;3.55;2.00;;;;;;;;;;2054338;28;20171;-61
2021/07/07 01:07:31;;;;;;;3.75;2.30;;;;;;;;;;2058465;28;20190;-60
2021/07/07 01:08:31;;;;;;;4.05;2.42;;;;;;;;;;2060454;28;20205;-61
2021/07/07 01:09:31;;;;;;;2.70;2.30;;;;;;;;;;2062006;28;20405;-62
2021/07/07 01:10:31;;;;;;;2.60;2.40;;;;;;;;;;2061491;28;20185;-62
2021/07/07 01:11:33;;;;;;;3.78;2.50;;;;;;;;;;2061273;28;20681;-61
2021/07/07 01:12:33;;;;;;;3.72;2.58;;;;;;;;;;2061216;28;20216;-61
2021/07/07 01:13:33;;;;;;;3.15;2.17;;;;;;;;;;2061276;28;20546;-59
2021/07/07 01:14:34;;;;;;;5.55;2.92;;;;;;;;;;2061950;28;20221;-60
2021/07/07 01:15:36;;;;;;;5.03;3.08;;;;;;;;;;2061557;28;20723;-61
2021/07/07 01:16:36;;;;;;;3.38;2.10;;;;;;;;;;2056333;28;20186;-61
2021/07/07 01:17:36;;;;;;;2.55;2.30;;;;;;;;;;2060935;28;20781;-61
2021/07/07 01:18:37;;;;;;;4.28;2.72;;;;;;;;;;2058828;28;20218;-62
2021/07/07 01:19:37;;;;;;;3.30;2.60;;;;;;;;;;2062259;28;20214;-61
2021/07/07 01:20:39;;;;;;;3.13;2.35;;;;;;;;;;2062978;28;20278;-61
2021/07/07 01:21:44;;;;;;;3.35;2.58;;;;;;;;;;2061305;28;20547;-61
2021/07/07 01:22:44;;;;;;;3.17;2.63;;;;;;;;;;2053931;28;20560;-62
2021/07/07 01:23:45;;;;;;;2.72;2.53;;;;;;;;;;2061442;28;20174;-61
2021/07/07 01:24:45;;;;;;;3.90;2.58;;;;;;;;;;2056155;28;20202;-61
2021/07/07 01:25:46;;;;;;;4.72;2.83;;;;;;;;;;2052902;29;20171;-60
2021/07/07 01:26:46;;;;;;;3.45;2.50;;;;;;;;;;2059132;28;20240;-61
2021/07/07 01:27:47;;;;;;;4.15;2.40;;;;;;;;;;2059183;28;20228;-61
2021/07/07 01:28:47;;;;;;;3.70;3.40;;;;;;;;;;2052365;28;20178;-63
2021/07/07 01:29:47;;;;;;;2.92;2.67;;;;;;;;;;2059037;28;20189;-58
2021/07/07 01:30:48;;;;;;;3.10;2.67;;;;;;;;;;2051736;28;20185;-62
2021/07/07 01:31:48;;;;;;;7.28;3.05;;;;;;;;;;2049942;29;20915;-62
2021/07/07 01:32:49;;;;;;;6.18;2.63;;;;;;;;;;2050781;29;20191;-61
2021/07/07 01:33:49;;;;;;;4.22;2.63;;;;;;;;;;2057760;28;20170;-62
2021/07/07 01:34:50;;;;;;;6.10;3.25;;;;;;;;;;2057757;28;20208;-61
2021/07/07 01:35:50;;;;;;;3.53;2.63;;;;;;;;;;2053906;28;20289;-60
2021/07/07 01:36:50;;;;;;;3.10;2.90;;;;;;;;;;2058758;28;20194;-61
2021/07/07 01:37:51;;;;;;;3.75;2.67;;;;;;;;;;2059785;28;20202;-61
2021/07/07 01:38:52;;;;;;;4.28;2.78;;;;;;;;;;2057163;28;20162;-61
2021/07/07 01:39:52;;;;;;;3.10;2.40;;;;;;;;;;2043978;29;20693;-62
2021/07/07 01:40:56;;;;;;;3.60;2.78;;;;;;;;;;2052152;29;20170;-62
2021/07/07 01:41:56;;;;;;;4.75;2.42;;;;;;;;;;2043860;29;20183;-62
2021/07/07 01:42:57;;;;;;;4.28;2.47;;;;;;;;;;2043900;29;20196;-63
2021/07/07 01:43:58;;;;;;;4.47;2.78;;;;;;;;;;2052035;28;20211;-61
2021/07/07 01:44:58;;;;;;;4.25;2.38;;;;;;;;;;2051842;29;20277;-62
2021/07/07 01:45:58;;;;;;;4.95;2.38;;;;;;;;;;2045042;29;20175;-62
2021/07/07 01:47:00;;;;;;;2.42;2.33;;;;;;;;;;2052763;29;20242;-62
2021/07/07 01:48:00;;;;;;;3.05;2.80;;;;;;;;;;2051681;28;20661;-64
2021/07/07 01:49:00;;;;;;;3.08;2.60;;;;;;;;;;2054443;28;20194;-62
2021/07/07 01:50:01;;;;;;;5.60;2.78;;;;;;;;;;2060383;28;20236;-62
2021/07/07 01:51:01;;;;;;;3.55;2.75;;;;;;;;;;2058950;28;20217;-64
2021/07/07 01:52:01;;;;;;;3.10;2.80;;;;;;;;;;2059158;28;20178;-61
2021/07/07 01:53:02;;;;;;;3.80;2.80;;;;;;;;;;2059471;28;20208;-62
2021/07/07 01:54:03;;;;;;;3.20;2.83;;;;;;;;;;2057928;28;20215;-62
2021/07/07 01:55:07;;;;;;;3.03;2.72;;;;;;;;;;2059489;28;20204;-63
2021/07/07 01:56:07;;;;;;;4.40;3.00;;;;;;;;;;2052116;28;20170;-62
2021/07/07 01:57:07;;;;;;;3.67;2.97;;;;;;;;;;2053819;28;20190;-63
2021/07/07 01:58:08;;;;;;;3.97;2.70;;;;;;;;;;2057889;28;20221;-61
2021/07/07 01:59:08;;;;;;;3.35;2.85;;;;;;;;;;2054974;28;20220;-62
2021/07/07 02:00:16;;;;;;;3.15;2.83;;;;;;;;;;2050333;28;20186;-62
2021/07/07 02:01:16;;;;;;;5.13;2.60;;;;;;;;;;2051970;28;20202;-60
2021/07/07 02:02:17;;;;;;;5.50;3.38;;;;;;;;;;2051050;28;20187;-63
2021/07/07 02:03:17;;;;;;;2.92;2.72;;;;;;;;;;2061276;28;20175;-62
2021/07/07 02:04:17;;;;;;;3.90;2.88;;;;;;;;;;2069467;28;20182;-62
2021/07/07 02:05:19;;;;;;;8.07;3.35;;;;;;;;;;2058992;28;20170;-61
2021/07/07 02:06:20;;;;;;;5.45;3.03;;;;;;;;;;2058299;28;20182;-61
2021/07/07 02:07:20;;;;;;;3.50;3.20;;;;;;;;;;2060633;28;20190;-60
2021/07/07 02:08:20;;;;;;;5.47;2.90;;;;;;;;;;2058817;28;20174;-62
2021/07/07 02:09:21;;;;;;;4.22;3.10;;;;;;;;;;2057592;28;20187;-62
2021/07/07 02:10:21;;;;;;;4.45;3.00;;;;;;;;;;2059675;28;20182;-61
2021/07/07 02:11:21;;;;;;;4.68;3.10;;;;;;;;;;2060099;28;20182;-62
2021/07/07 02:12:22;;;;;;;3.35;3.00;;;;;;;;;;2058351;28;20190;-62
2021/07/07 02:13:22;;;;;;;3.13;2.83;;;;;;;;;;2056716;28;20217;-63
2021/07/07 02:14:22;;;;;;;5.82;3.28;;;;;;;;;;2055644;28;20197;-62
2021/07/07 02:15:24;;;;;;;3.10;2.80;;;;;;;;;;2055392;28;20167;-62
2021/07/07 02:16:24;;;;;;;4.93;3.50;;;;;;;;;;2056952;28;20669;-62
2021/07/07 02:17:24;;;;;;;5.40;3.70;;;;;;;;;;2054963;28;20203;-62
2021/07/07 02:18:25;;;;;;;3.33;3.10;;;;;;;;;;2056419;28;20174;-61
2021/07/07 02:19:25;;;;;;;4.57;3.38;;;;;;;;;;2053784;28;20171;-62
2021/07/07 02:20:28;;;;;;;4.82;3.85;;;;;;;;;;2057565;28;20185;-63
2021/07/07 02:21:28;;;;;;;4.18;2.70;;;;;;;;;;2058669;28;20193;-62
2021/07/07 02:22:28;;;;;;;5.32;3.08;;;;;;;;;;2057290;28;20194;-62
2021/07/07 02:23:28;;;;;;;5.10;4.40;;;;;;;;;;2058939;28;20174;-62
2021/07/07 02:24:29;;;;;;;3.47;3.17;;;;;;;;;;2058038;28;20293;-62
2021/07/07 02:25:30;;;;;;;5.45;4.13;;;;;;;;;;2058685;28;20173;-62
2021/07/07 02:26:31;;;;;;;5.03;3.30;;;;;;;;;;2059325;28;20238;-62
2021/07/07 02:27:31;;;;;;;6.72;4.03;;;;;;;;;;2057550;28;20229;-62
2021/07/07 02:28:31;;;;;;;4.90;3.40;;;;;;;;;;2054281;28;20193;-59
2021/07/07 02:29:32;;;;;;;3.70;3.08;;;;;;;;;;2055014;28;20213;-62
2021/07/07 02:30:33;;;;;;;3.85;3.40;;;;;;;;;;2056854;28;20579;-60
2021/07/07 02:31:33;;;;;;;4.78;3.72;;;;;;;;;;2054177;28;20179;-57
2021/07/07 02:32:34;;;;;;;3.70;3.35;;;;;;;;;;2055666;28;20194;-59
2021/07/07 02:33:34;;;;;;;4.97;3.28;;;;;;;;;;2054969;28;20198;-57
2021/07/07 02:34:34;;;;;;;3.70;3.40;;;;;;;;;;2055605;28;20202;-59
2021/07/07 02:35:35;;;;;;;5.15;3.05;;;;;;;;;;2056286;28;20189;-59
2021/07/07 02:36:36;;;;;;;4.18;3.63;;;;;;;;;;2056491;28;20186;-57
2021/07/07 02:37:36;;;;;;;4.32;3.20;;;;;;;;;;2057303;28;20209;-60
2021/07/07 02:38:36;;;;;;;5.15;3.38;;;;;;;;;;2054307;28;20929;-59
2021/07/07 02:39:37;;;;;;;3.70;3.28;;;;;;;;;;2055718;28;20170;-61
2021/07/07 02:40:37;;;;;;;5.82;3.45;;;;;;;;;;2055988;28;20170;-61
2021/07/07 02:41:38;;;;;;;4.15;3.38;;;;;;;;;;2055603;28;20178;-61
2021/07/07 02:42:38;;;;;;;3.80;3.33;;;;;;;;;;2056920;28;20174;-61
2021/07/07 02:43:38;;;;;;;3.72;3.40;;;;;;;;;;2056301;28;20562;-59
2021/07/07 02:44:38;;;;;;;3.70;3.40;;;;;;;;;;2069372;23;20213;-53
2021/07/07 02:45:40;;;;;;;4.75;4.00;;;;;;;;;;2071324;28;20191;-53
2021/07/07 02:46:40;;;;;;;5.18;3.60;;;;;;;;;;2072614;28;20177;-52
2021/07/07 02:47:41;;;;;;;4.90;4.22;;;;;;;;;;2072160;28;20191;-57
2021/07/07 02:48:41;;;;;;;5.22;4.05;;;;;;;;;;2062338;28;20342;-57
2021/07/07 02:49:42;;;;;;;3.80;3.47;;;;;;;;;;2070721;28;20673;-58
2021/07/07 02:50:42;;;;;;;5.00;3.85;;;;;;;;;;2073862;28;20173;-58
2021/07/07 02:51:43;;;;;;;3.70;3.50;;;;;;;;;;2069731;28;20669;-57
2021/07/07 02:52:44;;;;;;;3.25;2.97;;;;;;;;;;2073715;28;20181;-58
2021/07/07 02:53:44;;;;;;;4.65;4.00;;;;;;;;;;2068904;28;20169;-55
2021/07/07 02:54:46;;;;;;;4.90;3.70;;;;;;;;;;2073284;28;20567;-50
2021/07/07 02:55:46;;;;;;;3.78;3.47;;;;;;;;;;2068262;28;20651;-56
2021/07/07 02:56:46;;;;;;;5.55;3.85;;;;;;;;;;2072789;28;20185;-56
2021/07/07 02:57:56;;;;;;;4.05;3.75;;;;;;;;;;2073343;28;20204;-56
2021/07/07 02:58:56;;;;;;;5.38;3.70;;;;;;;;;;2070950;28;20194;-54
2021/07/07 02:59:57;;;;;;;4.95;3.85;;;;;;;;;;2073085;28;20260;-53
2021/07/07 03:00:57;;;;;;;4.15;3.75;;;;;;;;;;2072486;28;20738;-53
2021/07/07 03:01:57;;;;;;;5.00;3.60;;;;;;;;;;2073262;28;20161;-56
2021/07/07 03:02:59;;;;;;;3.72;2.95;;;;;;;;;;2074845;28;20728;-54
2021/07/07 03:03:59;;;;;;;3.60;3.08;;;;;;;;;;2072948;28;20181;-54
2021/07/07 03:05:05;;;;;;;5.25;3.28;;;;;;;;;;2072965;28;20265;-55
2021/07/07 03:06:05;;;;;;;3.95;3.58;;;;;;;;;;2070990;28;20180;-54
2021/07/07 03:07:06;;;;;;;4.07;3.75;;;;;;;;;;2074297;28;20192;-56
2021/07/07 03:08:06;;;;;;;4.30;3.40;;;;;;;;;;2073829;28;20164;-56
2021/07/07 03:09:07;;;;;;;6.15;3.60;;;;;;;;;;2070918;28;20185;-54
2021/07/07 03:10:08;;;;;;;4.47;3.80;;;;;;;;;;2073540;28;20204;-56
2021/07/07 03:11:09;;;;;;;5.88;4.13;;;;;;;;;;2064743;28;20228;-57
2021/07/07 03:12:09;;;;;;;4.82;4.18;;;;;;;;;;2065690;28;20185;-57
2021/07/07 03:13:10;;;;;;;7.93;5.47;;;;;;;;;;2073960;28;20232;-57
2021/07/07 03:14:10;;;;;;;5.55;4.93;;;;;;;;;;2073053;28;20184;-58
2021/07/07 03:15:10;;;;;;;6.45;4.30;;;;;;;;;;2069725;28;20207;-55
2021/07/07 03:16:11;;;;;;;4.82;4.05;;;;;;;;;;2074527;28;20288;-57
2021/07/07 03:17:12;;;;;;;4.65;4.13;;;;;;;;;;2073926;28;20193;-56
2021/07/07 03:18:12;;;;;;;8.63;4.72;;;;;;;;;;2077869;28;20178;-55
2021/07/07 03:19:13;;;;;;;5.50;4.30;;;;;;;;;;2078622;28;20187;-56
2021/07/07 03:20:13;;;;;;;5.47;4.97;;;;;;;;;;2070727;28;20736;-57
2021/07/07 03:21:14;;;;;;;6.47;5.10;;;;;;;;;;2068951;28;20586;-57
2021/07/07 03:22:14;;;;;;;6.35;4.97;;;;;;;;;;2071258;28;20189;-58
2021/07/07 03:23:16;;;;;;;5.57;4.80;;;;;;;;;;2072965;28;20242;-58
2021/07/07 03:24:17;;;;;;;6.13;4.80;;;;;;;;;;2074532;28;20187;-59
2021/07/07 03:25:17;;;;;;;4.13;3.60;;;;;;;;;;2073617;28;20219;-58
2021/07/07 03:26:17;;;;;;;5.30;4.70;;;;;;;;;;2073246;28;20231;-59
2021/07/07 03:27:17;;;;;;;4.20;3.85;;;;;;;;;;2070147;28;20185;-56
2021/07/07 03:28:19;;;;;;;5.07;4.32;;;;;;;;;;2073939;28;20169;-58
2021/07/07 03:29:19;;;;;;;4.72;3.95;;;;;;;;;;2072139;28;20196;-52
2021/07/07 03:30:20;;;;;;;6.05;3.90;;;;;;;;;;2075962;28;20203;-53
2021/07/07 03:31:20;;;;;;;7.00;4.15;;;;;;;;;;2069776;28;20251;-57
2021/07/07 03:32:20;;;;;;;5.60;5.03;;;;;;;;;;2072909;28;20677;-54
2021/07/07 03:33:21;;;;;;;6.70;5.95;;;;;;;;;;2074123;28;20199;-55
2021/07/07 03:34:21;;;;;;;8.85;6.38;;;;;;;;;;2071505;28;20674;-55
2021/07/07 03:35:22;;;;;;;5.00;4.20;;;;;;;;;;2070695;28;20200;-51
2021/07/07 03:36:22;;;;;;;8.27;5.03;;;;;;;;;;2070721;28;20169;-51
2021/07/07 03:37:22;;;;;;;4.30;4.00;;;;;;;;;;2070373;28;20634;-52
2021/07/07 03:38:24;;;;;;;5.68;4.45;;;;;;;;;;2069756;28;20192;-51
2021/07/07 03:39:24;;;;;;;6.35;4.65;;;;;;;;;;2071010;28;20255;-54
2021/07/07 03:40:25;;;;;;;5.32;3.80;;;;;;;;;;2072119;28;20184;-53
2021/07/07 03:41:25;;;;;;;5.70;3.83;;;;;;;;;;2072464;28;20259;-53
2021/07/07 03:42:25;;;;;;;4.25;3.60;;;;;;;;;;2068411;28;20178;-55
2021/07/07 03:43:26;;;;;;;4.57;4.18;;;;;;;;;;2070074;28;20224;-52
2021/07/07 03:44:26;;;;;;;5.60;4.10;;;;;;;;;;2066788;28;20255;-55
2021/07/07 03:45:27;;;;;;;4.43;4.03;;;;;;;;;;2070133;28;20215;-52
2021/07/07 03:46:27;;;;;;;4.72;4.13;;;;;;;;;;2072390;28;20185;-52
2021/07/07 03:47:29;;;;;;;4.07;3.67;;;;;;;;;;2072535;28;20588;-53
2021/07/07 03:48:29;;;;;;;6.30;4.13;;;;;;;;;;2072458;28;20189;-53
2021/07/07 03:49:29;;;;;;;4.93;4.38;;;;;;;;;;2070596;28;20258;-50
2021/07/07 03:50:30;;;;;;;6.20;3.75;;;;;;;;;;2065851;28;20185;-53
2021/07/07 03:51:30;;;;;;;6.05;4.13;;;;;;;;;;2070397;28;20187;-53
2021/07/07 03:52:31;;;;;;;4.00;3.70;;;;;;;;;;2070934;28;20187;-51
2021/07/07 03:53:31;;;;;;;4.78;3.72;;;;;;;;;;2070233;28;20177;-53
2021/07/07 03:54:32;;;;;;;4.82;4.25;;;;;;;;;;2070595;28;20185;-55
2021/07/07 03:55:33;;;;;;;4.97;4.18;;;;;;;;;;2070391;28;20206;-53
2021/07/07 03:56:33;;;;;;;4.72;4.32;;;;;;;;;;2071132;28;20271;-57
2021/07/07 03:57:33;;;;;;;5.28;4.35;;;;;;;;;;2070258;28;20196;-55
2021/07/07 03:58:34;;;;;;;7.38;4.40;;;;;;;;;;2071044;28;20187;-57
2021/07/07 03:59:34;;;;;;;6.63;4.10;;;;;;;;;;2072027;28;20189;-56
2021/07/07 04:00:34;;;;;;;4.75;3.88;;;;;;;;;;2068704;28;20181;-55
2021/07/07 04:01:35;;;;;;;5.28;4.05;;;;;;;;;;2070328;28;20173;-51
2021/07/07 04:02:35;;;;;;;4.82;4.30;;;;;;;;;;2073015;28;20650;-56
2021/07/07 04:03:36;;;;;;;7.78;4.45;;;;;;;;;;2068595;28;20173;-56
2021/07/07 04:04:36;;;;;;;4.63;4.18;;;;;;;;;;2071007;28;20195;-57
2021/07/07 04:05:37;;;;;;;4.78;4.35;;;;;;;;;;2071666;28;20653;-56
2021/07/07 04:06:38;;;;;;;4.18;3.78;;;;;;;;;;2064075;28;20192;-57
2021/07/07 04:07:38;;;;;;;5.60;4.60;;;;;;;;;;2067782;28;20192;-57
2021/07/07 04:08:39;;;;;;;3.97;3.67;;;;;;;;;;2071353;28;20260;-57
2021/07/07 04:09:39;;;;;;;4.80;4.13;;;;;;;;;;2071373;28;20191;-56
2021/07/07 04:10:39;;;;;;;6.30;4.72;;;;;;;;;;2072164;28;20180;-57
2021/07/07 04:11:41;;;;;;;6.45;4.28;;;;;;;;;;2067068;28;20197;-57
2021/07/07 04:12:42;;;;;;;7.90;4.00;;;;;;;;;;2071970;28;20169;-56
2021/07/07 04:13:43;;;;;;;4.30;3.90;;;;;;;;;;2066890;28;20197;-51
2021/07/07 04:14:43;;;;;;;7.43;4.28;;;;;;;;;;2072327;28;20201;-54
2021/07/07 04:15:43;;;;;;;5.57;4.38;;;;;;;;;;2065406;28;20261;-53
2021/07/07 04:16:43;;;;;;;4.55;3.85;;;;;;;;;;2071644;28;20237;-54
2021/07/07 04:17:45;;;;;;;5.63;4.40;;;;;;;;;;2064952;28;20217;-52
2021/07/07 04:18:45;;;;;;;7.75;4.57;;;;;;;;;;2064629;28;20665;-56
2021/07/07 04:19:45;;;;;;;7.32;4.30;;;;;;;;;;2065200;28;20201;-53
2021/07/07 04:20:46;;;;;;;4.38;3.97;;;;;;;;;;2071913;28;20187;-53
2021/07/07 04:21:46;;;;;;;5.45;4.35;;;;;;;;;;2069143;28;20174;-57
2021/07/07 04:22:48;;;;;;;5.55;4.00;;;;;;;;;;2071971;28;20181;-49
2021/07/07 04:23:48;;;;;;;6.07;4.00;;;;;;;;;;2073002;28;20169;-54
2021/07/07 04:24:48;;;;;;;5.57;4.13;;;;;;;;;;2071617;28;20690;-50
2021/07/07 04:25:49;;;;;;;7.88;4.90;;;;;;;;;;2072925;28;20171;-54
2021/07/07 04:26:50;;;;;;;10.25;4.55;;;;;;;;;;2071975;28;20180;-51
2021/07/07 04:27:50;;;;;;;4.68;4.15;;;;;;;;;;2070573;28;20676;-52
2021/07/07 04:28:50;;;;;;;4.22;3.83;;;;;;;;;;2070765;28;20199;-57
2021/07/07 04:29:50;;;;;;;5.00;4.30;;;;;;;;;;2069542;28;20228;-53
2021/07/07 04:30:50;;;;;;;4.25;3.50;;;;;;;;;;2072236;28;20181;-54
2021/07/07 04:31:56;;;;;;;8.07;4.30;;;;;;;;;;2071902;28;20207;-55
2021/07/07 04:32:57;;;;;;;4.68;4.07;;;;;;;;;;2071719;28;20170;-54
2021/07/07 04:33:57;;;;;;;5.07;4.00;;;;;;;;;;2069493;28;20199;-54
2021/07/07 04:34:57;;;;;;;5.40;4.55;;;;;;;;;;2071194;28;20217;-54
2021/07/07 04:35:57;;;;;;;12.18;4.75;;;;;;;;;;2070823;28;20186;-54
2021/07/07 04:36:58;;;;;;;5.80;3.55;;;;;;;;;;2070863;28;20173;-53
2021/07/07 04:37:58;;;;;;;4.05;3.75;;;;;;;;;;2072571;28;20197;-58
2021/07/07 04:38:58;;;;;;;6.53;4.18;;;;;;;;;;2072170;28;20169;-54
2021/07/07 04:39:58;;;;;;;5.15;4.43;;;;;;;;;;2072987;28;20715;-55
2021/07/07 04:40:59;;;;;;;4.75;3.63;;;;;;;;;;2074316;28;20177;-55
2021/07/07 04:41:59;;;;;;;4.50;3.58;;;;;;;;;;2073458;28;20161;-56
2021/07/07 04:42:59;;;;;;;4.65;3.53;;;;;;;;;;2073492;28;20227;-53
2021/07/07 04:44:00;;;;;;;3.72;3.42;;;;;;;;;;2071376;28;20161;-51
2021/07/07 04:45:00;;;;;;;6.60;3.78;;;;;;;;;;2074155;28;20711;-58
2021/07/07 04:46:00;;;;;;;5.80;4.22;;;;;;;;;;2073482;28;20180;-56
2021/07/07 04:47:01;;;;;;;5.13;3.75;;;;;;;;;;2074385;28;20169;-55
2021/07/07 04:48:02;;;;;;;4.45;4.10;;;;;;;;;;2073303;28;20181;-56
2021/07/07 04:49:03;;;;;;;4.40;4.00;;;;;;;;;;2073304;28;20640;-55
2021/07/07 04:50:04;;;;;;;5.97;4.13;;;;;;;;;;2070381;28;20185;-53
2021/07/07 04:51:04;;;;;;;6.15;5.05;;;;;;;;;;2072800;28;20906;-56
2021/07/07 04:52:05;;;;;;;4.60;3.85;;;;;;;;;;2069430;28;20203;-56
2021/07/07 04:53:05;;;;;;;4.72;3.90;;;;;;;;;;2073870;28;20181;-54
2021/07/07 04:54:05;;;;;;;8.23;4.50;;;;;;;;;;2073035;28;20268;-56
2021/07/07 04:55:07;;;;;;;4.75;4.05;;;;;;;;;;2073268;28;20254;-56
2021/07/07 04:56:07;;;;;;;4.25;3.85;;;;;;;;;;2069420;28;20296;-56
2021/07/07 04:57:07;;;;;;;5.50;4.10;;;;;;;;;;2073499;28;20204;-55
2021/07/07 04:58:08;;;;;;;5.10;4.60;;;;;;;;;;2073740;28;20666;-55
2021/07/07 04:59:08;;;;;;;5.00;4.53;;;;;;;;;;2073148;28;20165;-54
2021/07/07 05:00:12;;;;;;;6.63;4.25;;;;;;;;;;2073341;28;20696;-54
2021/07/07 05:01:12;;;;;;;6.00;3.85;;;;;;;;;;2068103;28;20552;-55
2021/07/07 05:02:12;;;;;;;5.00;4.50;;;;;;;;;;2072746;28;20185;-58
2021/07/07 05:03:12;;;;;;;5.30;4.90;;;;;;;;;;2064616;28;20181;-55
2021/07/07 05:04:13;;;;;;;4.53;4.03;;;;;;;;;;2064766;28;20182;-57
2021/07/07 05:05:14;;;;;;;5.18;4.63;;;;;;;;;;2071042;28;20209;-58
2021/07/07 05:06:14;;;;;;;6.30;3.97;;;;;;;;;;2070774;28;20189;-57
2021/07/07 05:07:14;;;;;;;5.75;3.72;;;;;;;;;;2068682;28;20264;-57
2021/07/07 05:08:14;;;;;;;4.03;3.65;;;;;;;;;;2070524;28;20243;-54
2021/07/07 05:09:15;;;;;;;3.92;3.45;;;;;;;;;;2072285;28;20185;-58
2021/07/07 05:10:15;;;;;;;8.15;5.60;;;;;;;;;;2068676;28;20169;-53
2021/07/07 05:11:16;;;;;;;6.93;4.22;;;;;;;;;;2068252;28;20177;-56
2021/07/07 05:12:16;;;;;;;5.75;5.25;;;;;;;;;;2068031;28;20225;-57
2021/07/07 05:13:17;;;;;;;5.72;5.28;;;;;;;;;;2072999;28;20608;-58
2021/07/07 05:14:17;;;;;;;5.57;4.97;;;;;;;;;;2070481;28;20177;-55
2021/07/07 05:15:18;;;;;;;9.18;4.75;;;;;;;;;;2071697;28;20235;-53
2021/07/07 05:16:19;;;;;;;7.57;4.47;;;;;;;;;;2071938;28;20681;-54
2021/07/07 05:17:19;;;;;;;11.93;5.53;;;;;;;;;;2071605;28;20240;-56
2021/07/07 05:18:20;;;;;;;4.78;4.40;;;;;;;;;;2071704;28;20177;-52
2021/07/07 05:19:20;;;;;;;11.98;5.32;;;;;;;;;;2072211;28;20197;-52
2021/07/07 05:20:20;;;;;;;7.60;4.43;;;;;;;;;;2071148;28;20203;-55
2021/07/07 05:21:21;;;;;;;4.32;4.03;;;;;;;;;;2071267;28;20167;-53
2021/07/07 05:22:21;;;;;;;4.90;3.88;;;;;;;;;;2071811;28;20191;-55
2021/07/07 05:23:21;;;;;;;4.28;3.85;;;;;;;;;;2072895;28;20177;-57
2021/07/07 05:24:21;;;;;;;8.32;3.47;;;;;;;;;;2071041;28;20173;-54
2021/07/07 05:25:22;;;;;;;4.75;3.72;;;;;;;;;;2071496;28;20263;-53
2021/07/07 05:26:22;;;;;;;5.78;4.07;;;;;;;;;;2068451;28;20178;-54
2021/07/07 05:27:22;;;;;;;4.43;3.60;;;;;;;;;;2068133;28;20176;-54
2021/07/07 05:28:23;;;;;;;5.05;3.97;;;;;;;;;;2072726;28;20292;-55
2021/07/07 05:29:23;;;;;;;6.90;3.72;;;;;;;;;;2071213;28;20192;-54
2021/07/07 05:30:25;;;;;;;4.65;4.07;;;;;;;;;;2071888;28;20173;-57
2021/07/07 05:31:25;;;;;;;7.68;4.03;;;;;;;;;;2070507;28;20180;-55
2021/07/07 05:32:26;;;;;;;3.80;3.47;;;;;;;;;;2073660;28;20200;-58
2021/07/07 05:33:33;;;;;;;7.60;3.85;;;;;;;;;;2071362;28;20177;-56
2021/07/07 05:34:35;;;;;;;4.22;3.65;;;;;;;;;;2068545;28;20285;-56
2021/07/07 05:35:36;;;;;;;6.38;3.95;;;;;;;;;;2061346;28;20190;-58
2021/07/07 05:36:36;;;;;;;4.13;3.80;;;;;;;;;;2068255;28;20257;-55
2021/07/07 05:37:36;;;;;;;6.03;3.45;;;;;;;;;;2070845;28;20614;-57
2021/07/07 05:38:37;;;;;;;4.43;3.38;;;;;;;;;;2068074;28;20277;-54
2021/07/07 05:39:37;;;;;;;7.78;3.67;;;;;;;;;;2071551;28;20227;-61
2021/07/07 05:40:37;;;;;;;5.72;3.70;;;;;;;;;;2071239;28;20541;-60
2021/07/07 05:41:38;;;;;;;4.03;3.50;;;;;;;;;;2067336;28;20248;-55
2021/07/07 05:42:39;;;;;;;3.83;3.40;;;;;;;;;;2072936;28;20601;-57
2021/07/07 05:43:39;;;;;;;7.43;3.20;;;;;;;;;;2072054;28;20164;-52
2021/07/07 05:44:39;;;;;;;4.35;3.45;;;;;;;;;;2068611;28;20260;-56
2021/07/07 05:45:39;;;;;;;5.72;3.22;;;;;;;;;;2070669;28;20207;-55
2021/07/07 05:46:40;;;;;;;4.30;3.42;;;;;;;;;;2069228;28;20232;-56
2021/07/07 05:47:40;;;;;;;3.92;3.45;;;;;;;;;;2063588;28;20166;-55
2021/07/07 05:48:40;;;;;;;4.63;3.58;;;;;;;;;;2064528;28;20212;-54
2021/07/07 05:49:41;;;;;;;5.43;3.00;;;;;;;;;;2070985;28;20638;-62
2021/07/07 05:50:42;;;;;;;8.93;3.45;;;;;;;;;;2064644;28;20166;-59
2021/07/07 05:51:42;;;;;;;3.65;3.25;;;;;;;;;;2070878;28;20189;-59
2021/07/07 05:52:42;;;;;;;4.75;3.15;;;;;;;;;;2070460;28;20216;-58
2021/07/07 05:53:43;;;;;;;5.47;3.42;;;;;;;;;;2073342;28;20169;-59
2021/07/07 05:54:43;;;;;;;6.50;2.88;;;;;;;;;;2073356;28;20683;-52
2021/07/07 05:55:43;;;;;;;3.75;2.88;;;;;;;;;;2073499;28;20173;-63
2021/07/07 05:56:43;;;;;;;4.28;3.40;;;;;;;;;;2068830;28;20723;-58
2021/07/07 05:57:44;;;;;;;4.57;3.20;;;;;;;;;;2071921;28;20226;-56
2021/07/07 05:58:46;;;;;;;6.25;3.40;;;;;;;;;;2070442;28;20177;-58
2021/07/07 05:59:46;;;;;;;6.28;3.70;;;;;;;;;;2070479;28;20180;-59
2021/07/07 06:00:47;;;;;;;5.53;3.22;;;;;;;;;;2070365;28;20181;-57
2021/07/07 06:01:47;;;;;;;6.55;3.50;;;;;;;;;;2072985;28;20677;-53
2021/07/07 06:02:48;;;;;;;6.93;3.33;;;;;;;;;;2068514;28;20673;-54
2021/07/07 06:03:48;;;;;;;4.22;3.25;;;;;;;;;;2068045;28;20173;-55